Zenica, Bosnia and Herzegovina

7:29 PM CEST on July 29, 2016 (GMT +0200)
Sarajevo | | Change Station

Elev 1677 ft 43.82 °N, 18.33 °E | Updated 29 minutes ago

Scattered Clouds
Scattered Clouds
84 °F
Feels Like 87 °F
N
7
Wind Variable Wind from West

Today
High -- | Low -- °F
--% Chance of Precip.
Yesterday
High -- | Low -- °F
Precip. -- in
Pressure 30.01 in
Visibility 6.2 miles
Clouds Scattered Clouds 5000 ft
Heat Index 87 °F
Dew Point 66 °F
Humidity 55%
Rainfall 0.00 in
Snow Depth Not available.
5:32 AM 8:16 PM
Waning Crescent, 20% visible
METAR LQSA 291700Z 28006KT 240V320 9999 SCT050 29/19 Q1016 NOSIG
Pressure 30.01 in
Visibility 6.2 miles
Clouds Scattered Clouds 5000 ft
Heat Index 87 °F
Dew Point 66 °F
Humidity 55%
Rainfall 0.00 in
Snow Depth Not available.
5:32 AM 8:16 PM
Waning Crescent, 20% visible
METAR LQSA 291700Z 28006KT 240V320 9999 SCT050 29/19 Q1016 NOSIG

10-Day Weather Forecast

No radar image for this location.
×

Almanac

Astronomy

Jul. 29, 2016 Rise Set
Actual Time
Civil Twilight
Nautical Twilight
Astronomical Twilight
Moon
Length of Visible Light
Length of Day
Tomorrow will be .
, % of the Moon is Illuminated

Today's Extremes

Country Highs Country Lows

Community

WunderPhotos

Upload Photos

1,928,381 photos uploaded!

WunderBlog® & News

Nearby

Air Quality

  Air Quality AQ Index Pollutant
Not available.

Snow Depth

Station Depth Elevation

Earthquake Activity

City Distance Mag. Time & Date
Minimum magnitude displayed is 2.5.

Coastal Water Temperatures

Place Temperature

Stations

Nearby Weather Stations

Station Location Temp. Windchill Dew Point Humidity Wind Precip. Elev Updated Type